Skip Navigation Links
NOAA logo - Click to go to the NOAA homepage
NOAA's National Weather Service
Alaska Aviation Weather Unit
  NWS logo - Click to go to the NWS homepage
Left Navbar Graphic     10 AKDT = 18 GMT

   
NOAA is celebrating 200 years of science, service, and stewardship. Visit the NOAA 200th celebration Web site to learn more.
USA.gov is the U.S. Government's official Web portal to all Federal, state and local government Web resources and services.
Facebook
NWS on Facebook

Important Change Regarding the AAWU Web Presence

 

Over the last several months, the AAWU has been working to navigate its webpages to a nationally supported server. Security, as well as other needs, have necessitated the change.  We have been given an extension for the site changeover while we diligently work at addressing feedback received. As of July 14, 2017, aawu.arh.noaa.gov will be discontinued. The new AAWU web address is weather.gov/aawu. It is now live and will run in-parallel with the old site until it is discontinued on July 14, 2017. Please continue to send any feedback or questions regarding the new webpages to nws.ar.aawu.webauthors@noaa.gov.  Thank you for your patience during this time of transition.
AAWU Home :: Display TAF Add Bookmark
TAF PATK 261738Z 2618/2718  VRB04KT P6SM SKC
     FM270900 VRB03KT P6SM SCT050 BKN100=

4588
FTAK31 PANC 261738
TAFAAQ
TAF
METAR PATK 261253Z AUTO 03003KT 10SM CLR 02/02 A2977 RMK AO2 SLP084
     T00220017 TSNO=

METAR PATK 261353Z AUTO 07003KT 10SM CLR 01/01 A2975 RMK AO2 SLP079
     T00110006 TSNO=

METAR PATK 261453Z AUTO 05003KT 10SM CLR 01/00 A2974 RMK AO2 SLP074
     T00110000 56015 TSNO=

METAR PATK 261553Z AUTO 07003KT 10SM CLR 02/01 A2973 RMK AO2 SLP073
     T00170006 TSNO=

METAR PATK 261653Z 07004KT 10SM CLR 02/01 A2973 RMK AO2 SLP071
     T00170006=

METAR PATK 261753Z 00000KT 10SM CLR 04/02 A2972 RMK AO2 SLP068 T00440022
     10044 20006 58007=


NOAA's National Weather Service
Alaska Aviation Weather Unit
6930 Sand Lake Road
Anchorage, AK 99502-1845
Disclaimer
Credits
Glossary
Privacy Policy
About Us
Career Opportunities
Contact AAWU Internet Services Site last modified: April, 17th 2012